sensor_id;sensor_type;location;lat;lon;timestamp;pressure;altitude;pressure_sealevel;temperature;humidity
70302;BME280;57706;56.326;43.882;2023-04-08T00:01:02;102150.66;;;1.70;48.07
70302;BME280;57706;56.326;43.882;2023-04-08T00:03:28;102155.09;;;1.68;49.30
70302;BME280;57706;56.326;43.882;2023-04-08T00:05:53;102162.09;;;1.65;48.50
70302;BME280;57706;56.326;43.882;2023-04-08T00:08:19;102152.84;;;1.58;48.97
70302;BME280;57706;56.326;43.882;2023-04-08T00:10:45;102155.50;;;1.57;48.84
70302;BME280;57706;56.326;43.882;2023-04-08T00:13:11;102153.34;;;1.46;49.15
70302;BME280;57706;56.326;43.882;2023-04-08T00:15:37;102148.25;;;1.43;49.52
70302;BME280;57706;56.326;43.882;2023-04-08T00:18:03;102146.59;;;1.42;49.94
70302;BME280;57706;56.326;43.882;2023-04-08T00:20:29;102162.09;;;1.43;50.22
70302;BME280;57706;56.326;43.882;2023-04-08T00:22:55;102161.16;;;1.22;51.00
70302;BME280;57706;56.326;43.882;2023-04-08T00:25:21;102161.97;;;1.22;50.66
70302;BME280;57706;56.326;43.882;2023-04-08T00:27:47;102161.88;;;1.26;50.61
70302;BME280;57706;56.326;43.882;2023-04-08T00:30:13;102164.53;;;1.24;51.10
70302;BME280;57706;56.326;43.882;2023-04-08T00:32:40;102156.16;;;1.17;51.05
70302;BME280;57706;56.326;43.882;2023-04-08T00:35:06;102168.47;;;1.10;51.53
70302;BME280;57706;56.326;43.882;2023-04-08T00:37:32;102165.31;;;1.02;51.53
70302;BME280;57706;56.326;43.882;2023-04-08T00:39:59;102168.03;;;0.99;51.46
70302;BME280;57706;56.326;43.882;2023-04-08T00:42:25;102165.56;;;0.96;51.92
70302;BME280;57706;56.326;43.882;2023-04-08T00:44:51;102160.47;;;0.93;52.05
70302;BME280;57706;56.326;43.882;2023-04-08T00:47:17;102164.19;;;0.86;52.18
70302;BME280;57706;56.326;43.882;2023-04-08T00:49:43;102159.25;;;0.79;52.29
70302;BME280;57706;56.326;43.882;2023-04-08T00:52:09;102157.53;;;0.78;52.27
70302;BME280;57706;56.326;43.882;2023-04-08T00:54:36;102156.69;;;0.78;52.15
70302;BME280;57706;56.326;43.882;2023-04-08T00:57:03;102157.44;;;0.81;52.08
70302;BME280;57706;56.326;43.882;2023-04-08T00:59:30;102156.50;;;0.84;52.75
70302;BME280;57706;56.326;43.882;2023-04-08T01:07:27;102152.47;;;0.75;53.10
70302;BME280;57706;56.326;43.882;2023-04-08T01:09:55;102162.13;;;0.70;53.08
70302;BME280;57706;56.326;43.882;2023-04-08T01:12:25;102161.69;;;0.59;53.36
70302;BME280;57706;56.326;43.882;2023-04-08T01:14:56;102168.53;;;0.60;52.89
70302;BME280;57706;56.326;43.882;2023-04-08T01:17:23;102173.66;;;0.61;52.84
70302;BME280;57706;56.326;43.882;2023-04-08T01:19:50;102173.72;;;0.60;52.77
70302;BME280;57706;56.326;43.882;2023-04-08T01:24:47;102173.91;;;0.53;53.08
70302;BME280;57706;56.326;43.882;2023-04-08T01:27:15;102168.88;;;0.50;53.31
70302;BME280;57706;56.326;43.882;2023-04-08T01:29:42;102169.72;;;0.51;52.97
70302;BME280;57706;56.326;43.882;2023-04-08T01:32:09;102172.34;;;0.49;53.02
70302;BME280;57706;56.326;43.882;2023-04-08T01:34:37;102174.81;;;0.52;52.82
70302;BME280;57706;56.326;43.882;2023-04-08T01:37:05;102177.41;;;0.52;52.98
70302;BME280;57706;56.326;43.882;2023-04-08T01:39:34;102173.28;;;0.47;53.30
70302;BME280;57706;56.326;43.882;2023-04-08T01:42:00;102171.66;;;0.44;53.07
70302;BME280;57706;56.326;43.882;2023-04-08T01:44:27;102166.88;;;0.33;54.31
70302;BME280;57706;56.326;43.882;2023-04-08T01:46:54;102176.34;;;0.33;53.60
70302;BME280;57706;56.326;43.882;2023-04-08T01:49:22;102179.84;;;0.32;53.26
70302;BME280;57706;56.326;43.882;2023-04-08T01:51:50;102180.66;;;0.32;53.29
70302;BME280;57706;56.326;43.882;2023-04-08T01:54:17;102177.47;;;0.25;53.65
70302;BME280;57706;56.326;43.882;2023-04-08T01:56:43;102187.09;;;0.20;54.14
70302;BME280;57706;56.326;43.882;2023-04-08T01:59:13;102175.19;;;0.16;54.23
70302;BME280;57706;56.326;43.882;2023-04-08T02:01:42;102184.66;;;0.16;54.20
70302;BME280;57706;56.326;43.882;2023-04-08T02:04:09;102185.41;;;0.19;53.53
70302;BME280;57706;56.326;43.882;2023-04-08T02:06:36;102188.81;;;0.21;53.96
70302;BME280;57706;56.326;43.882;2023-04-08T02:09:02;102186.28;;;0.20;54.18
70302;BME280;57706;56.326;43.882;2023-04-08T02:11:28;102195.88;;;0.16;54.06
70302;BME280;57706;56.326;43.882;2023-04-08T02:13:55;102191.59;;;0.15;53.78
70302;BME280;57706;56.326;43.882;2023-04-08T02:16:25;102184.72;;;0.14;54.50
70302;BME280;57706;56.326;43.882;2023-04-08T02:19:10;102188.22;;;0.13;54.51
70302;BME280;57706;56.326;43.882;2023-04-08T02:21:43;102191.56;;;0.17;54.22
70302;BME280;57706;56.326;43.882;2023-04-08T02:24:13;102191.34;;;0.23;53.92
70302;BME280;57706;56.326;43.882;2023-04-08T02:26:42;102195.56;;;0.25;53.65
70302;BME280;57706;56.326;43.882;2023-04-08T02:29:11;102198.75;;;0.34;53.34
70302;BME280;57706;56.326;43.882;2023-04-08T02:31:40;102196.94;;;0.36;53.89
70302;BME280;57706;56.326;43.882;2023-04-08T02:34:09;102203.59;;;0.43;53.63
70302;BME280;57706;56.326;43.882;2023-04-08T02:36:35;102199.94;;;0.49;53.14
70302;BME280;57706;56.326;43.882;2023-04-08T02:39:02;102203.88;;;0.61;53.11
70302;BME280;57706;56.326;43.882;2023-04-08T02:41:28;102200.75;;;0.76;52.89
70302;BME280;57706;56.326;43.882;2023-04-08T02:43:55;102200.53;;;0.82;52.52
70302;BME280;57706;56.326;43.882;2023-04-08T02:46:21;102200.53;;;0.82;52.77
70302;BME280;57706;56.326;43.882;2023-04-08T02:48:47;102197.06;;;0.84;52.13
70302;BME280;57706;56.326;43.882;2023-04-08T02:51:14;102191.66;;;0.90;52.12
70302;BME280;57706;56.326;43.882;2023-04-08T02:53:40;102188.91;;;0.94;51.99
70302;BME280;57706;56.326;43.882;2023-04-08T02:56:08;102189.66;;;0.98;51.98
70302;BME280;57706;56.326;43.882;2023-04-08T02:58:34;102196.16;;;1.08;51.61
70302;BME280;57706;56.326;43.882;2023-04-08T03:01:00;102190.78;;;1.15;51.39
70302;BME280;57706;56.326;43.882;2023-04-08T03:03:26;102200.00;;;1.22;51.27
70302;BME280;57706;56.326;43.882;2023-04-08T03:05:56;102196.72;;;1.17;51.21
70302;BME280;57706;56.326;43.882;2023-04-08T03:08:22;102198.25;;;1.22;51.39
70302;BME280;57706;56.326;43.882;2023-04-08T03:10:48;102196.84;;;1.37;50.97
70302;BME280;57706;56.326;43.882;2023-04-08T03:13:15;102198.19;;;1.48;50.72
70302;BME280;57706;56.326;43.882;2023-04-08T03:15:41;102199.88;;;1.49;50.88
70302;BME280;57706;56.326;43.882;2023-04-08T03:18:07;102195.28;;;1.56;50.58
70302;BME280;57706;56.326;43.882;2023-04-08T03:20:32;102195.91;;;1.62;50.55
70302;BME280;57706;56.326;43.882;2023-04-08T03:22:58;102193.97;;;1.68;50.32
70302;BME280;57706;56.326;43.882;2023-04-08T03:25:24;102196.72;;;1.85;49.41
70302;BME280;57706;56.326;43.882;2023-04-08T03:27:50;102195.41;;;1.97;49.51
70302;BME280;57706;56.326;43.882;2023-04-08T03:30:16;102202.91;;;2.05;49.30
70302;BME280;57706;56.326;43.882;2023-04-08T03:32:42;102207.56;;;2.17;49.18
70302;BME280;57706;56.326;43.882;2023-04-08T03:35:08;102204.53;;;2.28;48.79
70302;BME280;57706;56.326;43.882;2023-04-08T03:37:34;102195.78;;;2.31;48.59
70302;BME280;57706;56.326;43.882;2023-04-08T03:40:00;102204.88;;;2.41;48.07
70302;BME280;57706;56.326;43.882;2023-04-08T03:42:25;102208.91;;;2.48;47.90
70302;BME280;57706;56.326;43.882;2023-04-08T03:44:51;102210.19;;;2.59;47.49
70302;BME280;57706;56.326;43.882;2023-04-08T03:47:17;102213.19;;;2.70;47.10
70302;BME280;57706;56.326;43.882;2023-04-08T03:49:43;102212.13;;;2.74;46.48
70302;BME280;57706;56.326;43.882;2023-04-08T03:52:09;102213.69;;;2.79;46.80
70302;BME280;57706;56.326;43.882;2023-04-08T03:54:34;102212.59;;;2.84;46.55
70302;BME280;57706;56.326;43.882;2023-04-08T03:57:00;102213.28;;;2.88;46.20
70302;BME280;57706;56.326;43.882;2023-04-08T03:59:26;102212.03;;;2.97;45.79
70302;BME280;57706;56.326;43.882;2023-04-08T04:01:52;102219.91;;;2.95;46.50
70302;BME280;57706;56.326;43.882;2023-04-08T04:04:18;102209.22;;;3.01;46.05
70302;BME280;57706;56.326;43.882;2023-04-08T04:06:44;102220.75;;;3.15;45.76
70302;BME280;57706;56.326;43.882;2023-04-08T04:09:10;102214.81;;;3.13;45.87
70302;BME280;57706;56.326;43.882;2023-04-08T04:11:36;102212.78;;;3.39;45.65
70302;BME280;57706;56.326;43.882;2023-04-08T04:14:02;102217.38;;;3.51;45.57
70302;BME280;57706;56.326;43.882;2023-04-08T04:16:28;102215.69;;;3.69;45.20
70302;BME280;57706;56.326;43.882;2023-04-08T04:18:54;102221.16;;;3.82;45.04
70302;BME280;57706;56.326;43.882;2023-04-08T04:21:20;102218.19;;;3.90;44.92
70302;BME280;57706;56.326;43.882;2023-04-08T04:23:45;102214.78;;;4.07;44.83
70302;BME280;57706;56.326;43.882;2023-04-08T04:26:11;102218.28;;;4.06;44.75
70302;BME280;57706;56.326;43.882;2023-04-08T04:28:37;102219.22;;;4.23;44.28
70302;BME280;57706;56.326;43.882;2023-04-08T04:31:03;102221.31;;;4.34;43.27
70302;BME280;57706;56.326;43.882;2023-04-08T04:33:30;102225.06;;;4.46;43.74
70302;BME280;57706;56.326;43.882;2023-04-08T04:35:56;102224.59;;;4.55;42.94
70302;BME280;57706;56.326;43.882;2023-04-08T04:38:22;102220.75;;;4.62;43.25
70302;BME280;57706;56.326;43.882;2023-04-08T04:40:48;102225.31;;;4.75;42.26
70302;BME280;57706;56.326;43.882;2023-04-08T04:43:13;102222.72;;;4.75;42.30
70302;BME280;57706;56.326;43.882;2023-04-08T04:45:39;102229.91;;;4.87;42.17
70302;BME280;57706;56.326;43.882;2023-04-08T04:48:05;102229.44;;;4.96;41.55
70302;BME280;57706;56.326;43.882;2023-04-08T04:50:31;102224.59;;;5.06;41.58
70302;BME280;57706;56.326;43.882;2023-04-08T04:52:57;102223.72;;;5.06;41.03
70302;BME280;57706;56.326;43.882;2023-04-08T04:55:22;102231.91;;;5.16;40.85
70302;BME280;57706;56.326;43.882;2023-04-08T04:57:48;102224.59;;;5.38;40.06
70302;BME280;57706;56.326;43.882;2023-04-08T05:00:14;102228.22;;;5.52;39.09
70302;BME280;57706;56.326;43.882;2023-04-08T05:02:41;102226.72;;;5.64;39.32
70302;BME280;57706;56.326;43.882;2023-04-08T05:05:07;102225.19;;;5.60;39.77
70302;BME280;57706;56.326;43.882;2023-04-08T05:07:37;102235.38;;;5.81;39.79
70302;BME280;57706;56.326;43.882;2023-04-08T05:10:04;102237.19;;;5.95;38.96
70302;BME280;57706;56.326;43.882;2023-04-08T05:12:30;102237.03;;;6.14;38.41
70302;BME280;57706;56.326;43.882;2023-04-08T05:14:59;102244.19;;;6.41;37.62
70302;BME280;57706;56.326;43.882;2023-04-08T05:17:25;102239.59;;;6.89;36.75
70302;BME280;57706;56.326;43.882;2023-04-08T05:19:51;102239.66;;;7.46;36.18
70302;BME280;57706;56.326;43.882;2023-04-08T05:22:18;102233.47;;;7.89;34.72
70302;BME280;57706;56.326;43.882;2023-04-08T05:24:43;102240.66;;;8.13;34.79
70302;BME280;57706;56.326;43.882;2023-04-08T05:27:09;102240.13;;;8.74;33.93
70302;BME280;57706;56.326;43.882;2023-04-08T05:29:35;102239.38;;;8.98;33.13
70302;BME280;57706;56.326;43.882;2023-04-08T05:32:01;102244.88;;;8.29;33.80
70302;BME280;57706;56.326;43.882;2023-04-08T05:34:26;102237.09;;;7.87;34.36
70302;BME280;57706;56.326;43.882;2023-04-08T05:36:52;102241.78;;;7.68;34.66
70302;BME280;57706;56.326;43.882;2023-04-08T05:39:18;102249.06;;;7.63;34.73
70302;BME280;57706;56.326;43.882;2023-04-08T05:41:45;102241.13;;;7.65;34.64
70302;BME280;57706;56.326;43.882;2023-04-08T05:44:11;102245.00;;;7.44;34.53
70302;BME280;57706;56.326;43.882;2023-04-08T05:46:38;102250.41;;;7.41;34.84
70302;BME280;57706;56.326;43.882;2023-04-08T05:49:04;102243.81;;;7.63;34.68
70302;BME280;57706;56.326;43.882;2023-04-08T05:51:30;102249.72;;;7.67;34.44
70302;BME280;57706;56.326;43.882;2023-04-08T05:53:56;102249.63;;;7.68;33.81
70302;BME280;57706;56.326;43.882;2023-04-08T05:56:22;102246.00;;;7.84;34.02
70302;BME280;57706;56.326;43.882;2023-04-08T05:58:48;102245.25;;;8.09;33.41
70302;BME280;57706;56.326;43.882;2023-04-08T06:01:13;102254.09;;;8.21;33.41
70302;BME280;57706;56.326;43.882;2023-04-08T06:03:40;102252.56;;;8.45;33.02
70302;BME280;57706;56.326;43.882;2023-04-08T06:06:13;102248.69;;;8.50;32.10
70302;BME280;57706;56.326;43.882;2023-04-08T06:08:39;102244.53;;;8.61;32.00
70302;BME280;57706;56.326;43.882;2023-04-08T06:11:06;102258.16;;;8.66;31.91
70302;BME280;57706;56.326;43.882;2023-04-08T06:13:32;102252.28;;;8.75;31.30
70302;BME280;57706;56.326;43.882;2023-04-08T06:15:58;102259.22;;;9.15;30.92
70302;BME280;57706;56.326;43.882;2023-04-08T06:18:30;102253.50;;;9.34;30.20
70302;BME280;57706;56.326;43.882;2023-04-08T06:20:56;102247.34;;;9.60;29.85
70302;BME280;57706;56.326;43.882;2023-04-08T06:23:24;102245.72;;;9.95;29.20
70302;BME280;57706;56.326;43.882;2023-04-08T06:25:49;102247.47;;;10.43;28.42
70302;BME280;57706;56.326;43.882;2023-04-08T06:28:16;102255.53;;;10.76;28.54
70302;BME280;57706;56.326;43.882;2023-04-08T06:30:41;102256.50;;;11.20;27.24
70302;BME280;57706;56.326;43.882;2023-04-08T06:33:07;102249.41;;;11.88;26.67
70302;BME280;57706;56.326;43.882;2023-04-08T06:35:33;102241.25;;;12.66;25.77
70302;BME280;57706;56.326;43.882;2023-04-08T06:38:02;102253.94;;;13.54;25.24
70302;BME280;57706;56.326;43.882;2023-04-08T06:40:27;102242.00;;;14.19;22.74
70302;BME280;57706;56.326;43.882;2023-04-08T06:42:53;102250.16;;;17.69;19.91
70302;BME280;57706;56.326;43.882;2023-04-08T06:45:30;102240.00;;;23.04;15.33
70302;BME280;57706;56.326;43.882;2023-04-08T06:47:56;102241.72;;;25.96;11.75
70302;BME280;57706;56.326;43.882;2023-04-08T06:50:22;102232.16;;;28.96;10.45
70302;BME280;57706;56.326;43.882;2023-04-08T06:52:47;102223.44;;;31.79;9.55
70302;BME280;57706;56.326;43.882;2023-04-08T06:55:13;102219.91;;;34.19;7.74
70302;BME280;57706;56.326;43.882;2023-04-08T06:57:39;102211.28;;;36.05;6.94
70302;BME280;57706;56.326;43.882;2023-04-08T07:00:05;102211.16;;;37.25;6.03
70302;BME280;57706;56.326;43.882;2023-04-08T07:02:32;102206.00;;;38.45;5.83
70302;BME280;57706;56.326;43.882;2023-04-08T07:04:58;102204.75;;;39.51;5.12
70302;BME280;57706;56.326;43.882;2023-04-08T07:07:23;102208.88;;;36.80;4.79
70302;BME280;57706;56.326;43.882;2023-04-08T07:09:50;102203.50;;;32.11;6.59
70302;BME280;57706;56.326;43.882;2023-04-08T07:12:16;102208.88;;;33.74;6.02
70302;BME280;57706;56.326;43.882;2023-04-08T07:14:41;102197.63;;;35.26;5.93
70302;BME280;57706;56.326;43.882;2023-04-08T07:17:07;102188.59;;;36.81;5.39
70302;BME280;57706;56.326;43.882;2023-04-08T07:19:33;102190.03;;;38.61;4.62
70302;BME280;57706;56.326;43.882;2023-04-08T07:21:59;102183.78;;;39.32;4.93
70302;BME280;57706;56.326;43.882;2023-04-08T07:24:25;102183.34;;;39.97;4.39
70302;BME280;57706;56.326;43.882;2023-04-08T07:26:51;102181.09;;;40.17;4.24
70302;BME280;57706;56.326;43.882;2023-04-08T07:29:17;102177.34;;;40.83;3.84
70302;BME280;57706;56.326;43.882;2023-04-08T07:31:43;102184.09;;;41.42;3.98
70302;BME280;57706;56.326;43.882;2023-04-08T07:34:09;102177.06;;;40.14;3.60
70302;BME280;57706;56.326;43.882;2023-04-08T07:36:35;102174.94;;;40.20;3.70
70302;BME280;57706;56.326;43.882;2023-04-08T07:39:00;102173.97;;;39.98;4.28
70302;BME280;57706;56.326;43.882;2023-04-08T07:41:27;102162.63;;;42.00;3.55
70302;BME280;57706;56.326;43.882;2023-04-08T07:43:52;102163.44;;;42.00;3.36
70302;BME280;57706;56.326;43.882;2023-04-08T07:46:18;102173.16;;;41.25;3.69
70302;BME280;57706;56.326;43.882;2023-04-08T07:48:45;102170.06;;;41.87;3.24
70302;BME280;57706;56.326;43.882;2023-04-08T07:51:11;102169.59;;;41.15;2.84
70302;BME280;57706;56.326;43.882;2023-04-08T07:53:38;102167.25;;;40.87;3.28
70302;BME280;57706;56.326;43.882;2023-04-08T07:56:14;102160.38;;;42.69;2.52
70302;BME280;57706;56.326;43.882;2023-04-08T07:58:40;102165.72;;;39.40;3.34
70302;BME280;57706;56.326;43.882;2023-04-08T08:01:16;102162.91;;;35.81;4.24
70302;BME280;57706;56.326;43.882;2023-04-08T08:03:43;102165.09;;;39.43;3.55
70302;BME280;57706;56.326;43.882;2023-04-08T08:06:10;102151.09;;;39.80;3.32
70302;BME280;57706;56.326;43.882;2023-04-08T08:08:36;102153.41;;;39.37;3.26
70302;BME280;57706;56.326;43.882;2023-04-08T08:11:02;102142.34;;;39.69;3.09
70302;BME280;57706;56.326;43.882;2023-04-08T08:13:28;102143.84;;;41.72;3.05
70302;BME280;57706;56.326;43.882;2023-04-08T08:15:54;102136.38;;;41.93;2.58
70302;BME280;57706;56.326;43.882;2023-04-08T08:18:20;102135.81;;;42.21;2.37
70302;BME280;57706;56.326;43.882;2023-04-08T08:20:46;102133.97;;;41.71;2.66
70302;BME280;57706;56.326;43.882;2023-04-08T08:23:11;102135.44;;;40.16;2.84
70302;BME280;57706;56.326;43.882;2023-04-08T08:25:37;102149.25;;;40.99;3.20
70302;BME280;57706;56.326;43.882;2023-04-08T08:28:03;102139.44;;;42.56;2.34
70302;BME280;57706;56.326;43.882;2023-04-08T08:30:29;102140.13;;;42.65;2.52
70302;BME280;57706;56.326;43.882;2023-04-08T08:32:55;102125.31;;;41.81;2.76
70302;BME280;57706;56.326;43.882;2023-04-08T08:35:23;102135.09;;;38.92;3.36
70302;BME280;57706;56.326;43.882;2023-04-08T08:37:49;102122.84;;;42.68;2.73
70302;BME280;57706;56.326;43.882;2023-04-08T08:40:15;102124.38;;;44.22;1.92
70302;BME280;57706;56.326;43.882;2023-04-08T08:42:49;102128.06;;;43.98;1.86
70302;BME280;57706;56.326;43.882;2023-04-08T08:45:18;102123.94;;;39.87;2.81
70302;BME280;57706;56.326;43.882;2023-04-08T08:47:43;102113.19;;;35.98;3.59
70302;BME280;57706;56.326;43.882;2023-04-08T08:50:09;102115.28;;;38.04;3.52
70302;BME280;57706;56.326;43.882;2023-04-08T08:52:35;102115.63;;;40.58;2.92
70302;BME280;57706;56.326;43.882;2023-04-08T08:55:01;102111.59;;;43.23;2.60
70302;BME280;57706;56.326;43.882;2023-04-08T08:57:28;102104.91;;;43.49;1.95
70302;BME280;57706;56.326;43.882;2023-04-08T08:59:54;102109.66;;;43.36;1.70
70302;BME280;57706;56.326;43.882;2023-04-08T09:02:28;102112.06;;;43.13;2.09
70302;BME280;57706;56.326;43.882;2023-04-08T09:05:04;102107.41;;;40.97;2.40
70302;BME280;57706;56.326;43.882;2023-04-08T09:07:34;102099.34;;;41.94;2.17
70302;BME280;57706;56.326;43.882;2023-04-08T09:10:00;102097.69;;;43.73;2.15
70302;BME280;57706;56.326;43.882;2023-04-08T09:12:26;102101.72;;;44.81;1.75
70302;BME280;57706;56.326;43.882;2023-04-08T09:15:03;102102.75;;;37.98;3.45
70302;BME280;57706;56.326;43.882;2023-04-08T09:17:37;102096.66;;;40.65;2.83
70302;BME280;57706;56.326;43.882;2023-04-08T09:22:47;102090.31;;;43.77;1.85
70302;BME280;57706;56.326;43.882;2023-04-08T09:25:30;102088.53;;;44.13;1.62
70302;BME280;57706;56.326;43.882;2023-04-08T09:27:59;102090.97;;;44.95;1.65
70302;BME280;57706;56.326;43.882;2023-04-08T09:30:26;102087.53;;;44.66;1.71
70302;BME280;57706;56.326;43.882;2023-04-08T09:32:54;102092.00;;;45.39;1.23
70302;BME280;57706;56.326;43.882;2023-04-08T09:35:21;102084.59;;;45.11;1.60
70302;BME280;57706;56.326;43.882;2023-04-08T09:37:48;102084.94;;;39.94;2.46
70302;BME280;57706;56.326;43.882;2023-04-08T09:40:14;102087.72;;;40.03;2.66
70302;BME280;57706;56.326;43.882;2023-04-08T09:42:44;102090.53;;;42.35;2.29
70302;BME280;57706;56.326;43.882;2023-04-08T09:45:11;102089.59;;;42.77;2.22
70302;BME280;57706;56.326;43.882;2023-04-08T09:47:47;102069.91;;;43.69;2.14
70302;BME280;57706;56.326;43.882;2023-04-08T09:50:18;102077.13;;;39.43;2.95
70302;BME280;57706;56.326;43.882;2023-04-08T09:52:46;102074.75;;;40.12;2.56
70302;BME280;57706;56.326;43.882;2023-04-08T09:55:19;102073.03;;;37.12;3.77
70302;BME280;57706;56.326;43.882;2023-04-08T10:00:23;102068.59;;;40.72;2.47
70302;BME280;57706;56.326;43.882;2023-04-08T10:05:31;102071.47;;;37.76;3.12
70302;BME280;57706;56.326;43.882;2023-04-08T10:07:58;102074.59;;;36.52;3.44
70302;BME280;57706;56.326;43.882;2023-04-08T10:10:24;102078.00;;;38.26;3.05
70302;BME280;57706;56.326;43.882;2023-04-08T10:12:51;102067.34;;;39.19;2.91
70302;BME280;57706;56.326;43.882;2023-04-08T10:17:48;102065.03;;;39.04;2.66
70302;BME280;57706;56.326;43.882;2023-04-08T10:23:09;102063.13;;;35.97;3.51
70302;BME280;57706;56.326;43.882;2023-04-08T10:25:37;102060.22;;;36.94;3.79
70302;BME280;57706;56.326;43.882;2023-04-08T10:30:49;102059.50;;;42.50;2.18
70302;BME280;57706;56.326;43.882;2023-04-08T10:38:18;102038.41;;;42.21;2.43
70302;BME280;57706;56.326;43.882;2023-04-08T10:40:44;102051.25;;;42.63;2.11
70302;BME280;57706;56.326;43.882;2023-04-08T10:43:11;102043.19;;;42.83;2.14
70302;BME280;57706;56.326;43.882;2023-04-08T10:45:39;102030.53;;;43.07;1.87
70302;BME280;57706;56.326;43.882;2023-04-08T10:48:22;102031.44;;;43.11;1.74
70302;BME280;57706;56.326;43.882;2023-04-08T10:56:02;102021.19;;;41.48;2.01
70302;BME280;57706;56.326;43.882;2023-04-08T10:58:29;102031.94;;;39.09;2.69
70302;BME280;57706;56.326;43.882;2023-04-08T11:00:55;102027.16;;;39.68;2.63
70302;BME280;57706;56.326;43.882;2023-04-08T11:03:21;102026.44;;;39.18;2.96
70302;BME280;57706;56.326;43.882;2023-04-08T11:05:48;102024.84;;;40.31;2.67
70302;BME280;57706;56.326;43.882;2023-04-08T11:08:14;102012.69;;;41.10;2.31
70302;BME280;57706;56.326;43.882;2023-04-08T11:10:40;102008.28;;;38.04;2.62
70302;BME280;57706;56.326;43.882;2023-04-08T11:13:07;102013.19;;;32.01;4.73
70302;BME280;57706;56.326;43.882;2023-04-08T11:15:37;102015.25;;;33.34;4.46
70302;BME280;57706;56.326;43.882;2023-04-08T11:18:04;102003.75;;;33.53;4.30
70302;BME280;57706;56.326;43.882;2023-04-08T11:20:31;102017.56;;;29.13;5.76
70302;BME280;57706;56.326;43.882;2023-04-08T11:22:59;101994.94;;;30.41;5.91
70302;BME280;57706;56.326;43.882;2023-04-08T11:25:25;102000.09;;;33.73;4.79
70302;BME280;57706;56.326;43.882;2023-04-08T11:27:50;101997.50;;;34.67;3.94
70302;BME280;57706;56.326;43.882;2023-04-08T11:30:16;101995.97;;;35.09;4.19
70302;BME280;57706;56.326;43.882;2023-04-08T11:32:43;101997.06;;;35.90;3.89
70302;BME280;57706;56.326;43.882;2023-04-08T11:35:09;101999.78;;;37.18;3.08
70302;BME280;57706;56.326;43.882;2023-04-08T11:37:39;101992.69;;;37.91;3.26
70302;BME280;57706;56.326;43.882;2023-04-08T11:40:07;101991.31;;;38.57;3.10
70302;BME280;57706;56.326;43.882;2023-04-08T11:42:33;102000.34;;;37.43;2.89
70302;BME280;57706;56.326;43.882;2023-04-08T11:44:59;101988.06;;;35.08;4.43
70302;BME280;57706;56.326;43.882;2023-04-08T11:47:34;101999.41;;;33.52;4.33
70302;BME280;57706;56.326;43.882;2023-04-08T11:50:01;101991.22;;;33.46;4.47
70302;BME280;57706;56.326;43.882;2023-04-08T11:52:47;101999.88;;;32.62;5.19
70302;BME280;57706;56.326;43.882;2023-04-08T11:55:30;101996.63;;;33.57;4.77
70302;BME280;57706;56.326;43.882;2023-04-08T11:58:01;101991.31;;;35.53;4.06
70302;BME280;57706;56.326;43.882;2023-04-08T12:00:28;101988.50;;;34.91;4.32
70302;BME280;57706;56.326;43.882;2023-04-08T12:02:54;101996.75;;;31.59;5.36
70302;BME280;57706;56.326;43.882;2023-04-08T12:05:20;101987.81;;;31.75;5.36
70302;BME280;57706;56.326;43.882;2023-04-08T12:07:46;101986.00;;;32.84;5.08
70302;BME280;57706;56.326;43.882;2023-04-08T12:10:12;101981.34;;;31.17;5.43
70302;BME280;57706;56.326;43.882;2023-04-08T12:12:39;101997.22;;;30.93;5.89
70302;BME280;57706;56.326;43.882;2023-04-08T12:15:06;101988.97;;;31.94;5.37
70302;BME280;57706;56.326;43.882;2023-04-08T12:17:35;101993.63;;;32.66;5.10
70302;BME280;57706;56.326;43.882;2023-04-08T12:20:04;101984.47;;;35.12;4.14
70302;BME280;57706;56.326;43.882;2023-04-08T12:22:30;101982.38;;;37.37;3.49
70302;BME280;57706;56.326;43.882;2023-04-08T12:24:56;101979.31;;;38.84;3.22
70302;BME280;57706;56.326;43.882;2023-04-08T12:27:22;101980.91;;;36.27;3.85
70302;BME280;57706;56.326;43.882;2023-04-08T12:29:47;101983.66;;;35.31;4.20
70302;BME280;57706;56.326;43.882;2023-04-08T12:32:14;101987.78;;;36.86;3.96
70302;BME280;57706;56.326;43.882;2023-04-08T12:34:40;101986.06;;;37.69;3.47
70302;BME280;57706;56.326;43.882;2023-04-08T12:37:06;101971.81;;;38.35;3.19
70302;BME280;57706;56.326;43.882;2023-04-08T12:39:32;101962.88;;;39.02;3.00
70302;BME280;57706;56.326;43.882;2023-04-08T12:41:58;101955.81;;;39.54;2.89
70302;BME280;57706;56.326;43.882;2023-04-08T12:44:24;101951.44;;;39.97;3.13
70302;BME280;57706;56.326;43.882;2023-04-08T12:46:49;101948.31;;;38.11;3.82
70302;BME280;57706;56.326;43.882;2023-04-08T12:49:15;101943.81;;;38.96;3.11
70302;BME280;57706;56.326;43.882;2023-04-08T12:51:41;101945.63;;;36.59;3.88
70302;BME280;57706;56.326;43.882;2023-04-08T12:54:07;101951.63;;;31.43;5.88
70302;BME280;57706;56.326;43.882;2023-04-08T12:56:33;101941.94;;;33.88;5.19
70302;BME280;57706;56.326;43.882;2023-04-08T12:58:59;101942.97;;;31.51;5.87
70302;BME280;57706;56.326;43.882;2023-04-08T13:01:26;101939.19;;;32.72;5.72
70302;BME280;57706;56.326;43.882;2023-04-08T13:03:52;101931.94;;;34.13;5.20
70302;BME280;57706;56.326;43.882;2023-04-08T13:06:17;101934.84;;;32.71;5.13
70302;BME280;57706;56.326;43.882;2023-04-08T13:08:43;101926.97;;;30.96;5.98
70302;BME280;57706;56.326;43.882;2023-04-08T13:11:09;101928.88;;;29.92;6.63
70302;BME280;57706;56.326;43.882;2023-04-08T13:13:35;101928.00;;;30.85;6.28
70302;BME280;57706;56.326;43.882;2023-04-08T13:16:01;101933.25;;;32.54;5.40
70302;BME280;57706;56.326;43.882;2023-04-08T13:18:28;101926.03;;;31.28;5.72
70302;BME280;57706;56.326;43.882;2023-04-08T13:20:54;101927.56;;;32.09;5.75
70302;BME280;57706;56.326;43.882;2023-04-08T13:23:20;101925.66;;;32.51;5.46